sensor_id;sensor_type;location;lat;lon;timestamp;P1;durP1;ratioP1;P2;durP2;ratioP2
3677;SDS011;1855;50.934;6.958;2023-08-12T00:00:40;30.98;;;26.98;;
3677;SDS011;1855;50.934;6.958;2023-08-12T00:03:07;30.85;;;27.55;;
3677;SDS011;1855;50.934;6.958;2023-08-12T00:05:35;26.95;;;24.17;;
3677;SDS011;1855;50.934;6.958;2023-08-12T00:08:02;27.80;;;24.98;;
3677;SDS011;1855;50.934;6.958;2023-08-12T00:10:29;26.73;;;24.10;;
3677;SDS011;1855;50.934;6.958;2023-08-12T00:12:56;30.50;;;27.40;;
3677;SDS011;1855;50.934;6.958;2023-08-12T00:15:24;26.90;;;24.00;;
3677;SDS011;1855;50.934;6.958;2023-08-12T00:17:52;28.80;;;25.70;;
3677;SDS011;1855;50.934;6.958;2023-08-12T00:20:19;28.67;;;25.60;;
3677;SDS011;1855;50.934;6.958;2023-08-12T00:22:45;29.73;;;26.73;;
3677;SDS011;1855;50.934;6.958;2023-08-12T00:25:12;28.03;;;24.57;;
3677;SDS011;1855;50.934;6.958;2023-08-12T00:27:39;28.67;;;25.27;;
3677;SDS011;1855;50.934;6.958;2023-08-12T00:30:06;33.03;;;28.27;;
3677;SDS011;1855;50.934;6.958;2023-08-12T00:32:35;40.13;;;29.90;;
3677;SDS011;1855;50.934;6.958;2023-08-12T00:35:01;31.42;;;28.13;;
3677;SDS011;1855;50.934;6.958;2023-08-12T00:37:29;32.72;;;27.15;;
3677;SDS011;1855;50.934;6.958;2023-08-12T00:39:55;32.90;;;27.77;;
3677;SDS011;1855;50.934;6.958;2023-08-12T00:42:22;37.30;;;29.33;;
3677;SDS011;1855;50.934;6.958;2023-08-12T00:44:49;37.13;;;29.50;;
3677;SDS011;1855;50.934;6.958;2023-08-12T00:47:16;33.85;;;29.30;;
3677;SDS011;1855;50.934;6.958;2023-08-12T00:49:44;37.73;;;29.70;;
3677;SDS011;1855;50.934;6.958;2023-08-12T00:52:11;39.13;;;30.40;;
3677;SDS011;1855;50.934;6.958;2023-08-12T00:54:38;36.63;;;29.55;;
3677;SDS011;1855;50.934;6.958;2023-08-12T00:57:05;39.90;;;33.72;;
3677;SDS011;1855;50.934;6.958;2023-08-12T00:59:32;42.20;;;34.60;;
3677;SDS011;1855;50.934;6.958;2023-08-12T01:02:02;34.83;;;31.10;;
3677;SDS011;1855;50.934;6.958;2023-08-12T01:04:29;37.72;;;33.17;;
3677;SDS011;1855;50.934;6.958;2023-08-12T01:06:57;45.42;;;34.72;;
3677;SDS011;1855;50.934;6.958;2023-08-12T01:09:24;43.92;;;36.85;;
3677;SDS011;1855;50.934;6.958;2023-08-12T01:11:53;51.60;;;37.93;;
3677;SDS011;1855;50.934;6.958;2023-08-12T01:14:25;53.75;;;38.90;;
3677;SDS011;1855;50.934;6.958;2023-08-12T01:16:57;51.42;;;37.22;;
3677;SDS011;1855;50.934;6.958;2023-08-12T01:19:29;43.50;;;34.70;;
3677;SDS011;1855;50.934;6.958;2023-08-12T01:22:04;54.80;;;38.13;;
3677;SDS011;1855;50.934;6.958;2023-08-12T01:24:35;42.42;;;36.30;;
3677;SDS011;1855;50.934;6.958;2023-08-12T01:27:03;49.30;;;37.85;;
3677;SDS011;1855;50.934;6.958;2023-08-12T01:29:30;48.63;;;38.50;;
3677;SDS011;1855;50.934;6.958;2023-08-12T01:31:58;53.67;;;39.42;;
3677;SDS011;1855;50.934;6.958;2023-08-12T01:34:36;54.67;;;41.70;;
3677;SDS011;1855;50.934;6.958;2023-08-12T01:37:09;55.08;;;41.53;;
3677;SDS011;1855;50.934;6.958;2023-08-12T01:39:42;68.85;;;45.50;;
3677;SDS011;1855;50.934;6.958;2023-08-12T01:42:11;68.80;;;47.70;;
3677;SDS011;1855;50.934;6.958;2023-08-12T01:44:38;65.28;;;47.70;;
3677;SDS011;1855;50.934;6.958;2023-08-12T01:47:05;62.83;;;47.30;;
3677;SDS011;1855;50.934;6.958;2023-08-12T01:49:33;62.50;;;45.17;;
3677;SDS011;1855;50.934;6.958;2023-08-12T01:52:01;60.00;;;45.15;;
3677;SDS011;1855;50.934;6.958;2023-08-12T01:54:28;64.85;;;46.50;;
3677;SDS011;1855;50.934;6.958;2023-08-12T01:56:59;65.35;;;47.65;;
3677;SDS011;1855;50.934;6.958;2023-08-12T01:59:26;68.03;;;47.33;;
3677;SDS011;1855;50.934;6.958;2023-08-12T02:01:53;60.43;;;44.80;;
3677;SDS011;1855;50.934;6.958;2023-08-12T02:04:20;58.80;;;43.20;;
3677;SDS011;1855;50.934;6.958;2023-08-12T02:06:46;64.72;;;44.45;;
3677;SDS011;1855;50.934;6.958;2023-08-12T02:09:14;63.38;;;45.63;;
3677;SDS011;1855;50.934;6.958;2023-08-12T02:11:41;58.15;;;43.20;;
3677;SDS011;1855;50.934;6.958;2023-08-12T02:14:09;56.75;;;42.60;;
3677;SDS011;1855;50.934;6.958;2023-08-12T02:16:36;57.55;;;43.50;;
3677;SDS011;1855;50.934;6.958;2023-08-12T02:19:03;57.70;;;42.08;;
3677;SDS011;1855;50.934;6.958;2023-08-12T02:21:29;67.95;;;44.42;;
3677;SDS011;1855;50.934;6.958;2023-08-12T02:23:56;66.30;;;45.15;;
3677;SDS011;1855;50.934;6.958;2023-08-12T02:26:23;53.35;;;42.38;;
3677;SDS011;1855;50.934;6.958;2023-08-12T02:28:50;49.07;;;41.00;;
3677;SDS011;1855;50.934;6.958;2023-08-12T02:31:18;50.22;;;40.72;;
3677;SDS011;1855;50.934;6.958;2023-08-12T02:33:45;46.73;;;38.73;;
3677;SDS011;1855;50.934;6.958;2023-08-12T02:36:11;43.30;;;36.25;;
3677;SDS011;1855;50.934;6.958;2023-08-12T02:38:38;44.65;;;38.75;;
3677;SDS011;1855;50.934;6.958;2023-08-12T02:41:05;43.22;;;37.47;;
3677;SDS011;1855;50.934;6.958;2023-08-12T02:43:31;44.75;;;37.13;;
3677;SDS011;1855;50.934;6.958;2023-08-12T02:45:58;41.77;;;36.40;;
3677;SDS011;1855;50.934;6.958;2023-08-12T02:48:26;44.47;;;36.75;;
3677;SDS011;1855;50.934;6.958;2023-08-12T02:50:53;35.88;;;30.65;;
3677;SDS011;1855;50.934;6.958;2023-08-12T02:53:20;35.30;;;30.95;;
3677;SDS011;1855;50.934;6.958;2023-08-12T02:55:46;30.00;;;26.90;;
3677;SDS011;1855;50.934;6.958;2023-08-12T02:58:13;31.08;;;27.80;;
3677;SDS011;1855;50.934;6.958;2023-08-12T03:00:40;33.53;;;28.93;;
3677;SDS011;1855;50.934;6.958;2023-08-12T03:03:08;29.98;;;26.88;;
3677;SDS011;1855;50.934;6.958;2023-08-12T03:05:36;26.55;;;23.85;;
3677;SDS011;1855;50.934;6.958;2023-08-12T03:08:03;27.63;;;25.08;;
3677;SDS011;1855;50.934;6.958;2023-08-12T03:10:31;28.10;;;25.40;;
3677;SDS011;1855;50.934;6.958;2023-08-12T03:12:59;28.98;;;25.98;;
3677;SDS011;1855;50.934;6.958;2023-08-12T03:15:26;29.80;;;26.90;;
3677;SDS011;1855;50.934;6.958;2023-08-12T03:17:53;33.75;;;30.52;;
3677;SDS011;1855;50.934;6.958;2023-08-12T03:20:19;31.75;;;28.60;;
3677;SDS011;1855;50.934;6.958;2023-08-12T03:22:48;33.05;;;29.52;;
3677;SDS011;1855;50.934;6.958;2023-08-12T03:25:14;30.23;;;27.10;;
3677;SDS011;1855;50.934;6.958;2023-08-12T03:27:42;26.27;;;23.67;;
3677;SDS011;1855;50.934;6.958;2023-08-12T03:30:09;25.30;;;22.90;;
3677;SDS011;1855;50.934;6.958;2023-08-12T03:32:37;25.13;;;22.77;;
3677;SDS011;1855;50.934;6.958;2023-08-12T03:35:04;26.20;;;23.40;;
3677;SDS011;1855;50.934;6.958;2023-08-12T03:37:31;24.50;;;22.30;;
3677;SDS011;1855;50.934;6.958;2023-08-12T03:39:59;25.38;;;23.17;;
3677;SDS011;1855;50.934;6.958;2023-08-12T03:42:26;24.73;;;22.30;;
3677;SDS011;1855;50.934;6.958;2023-08-12T03:44:53;25.33;;;23.02;;
3677;SDS011;1855;50.934;6.958;2023-08-12T03:47:19;25.92;;;23.23;;
3677;SDS011;1855;50.934;6.958;2023-08-12T03:49:48;23.77;;;21.58;;
3677;SDS011;1855;50.934;6.958;2023-08-12T03:52:15;20.13;;;18.02;;
3677;SDS011;1855;50.934;6.958;2023-08-12T03:54:42;18.55;;;16.80;;
3677;SDS011;1855;50.934;6.958;2023-08-12T03:57:11;18.05;;;16.35;;
3677;SDS011;1855;50.934;6.958;2023-08-12T03:59:37;18.08;;;16.38;;
3677;SDS011;1855;50.934;6.958;2023-08-12T04:02:04;18.35;;;16.50;;
3677;SDS011;1855;50.934;6.958;2023-08-12T04:04:31;18.33;;;16.63;;
3677;SDS011;1855;50.934;6.958;2023-08-12T04:06:58;18.02;;;16.42;;
3677;SDS011;1855;50.934;6.958;2023-08-12T04:09:25;17.10;;;15.40;;
3677;SDS011;1855;50.934;6.958;2023-08-12T04:11:52;16.73;;;15.15;;
3677;SDS011;1855;50.934;6.958;2023-08-12T04:14:20;18.50;;;16.80;;
3677;SDS011;1855;50.934;6.958;2023-08-12T04:16:47;17.30;;;15.80;;
3677;SDS011;1855;50.934;6.958;2023-08-12T04:19:14;18.15;;;16.55;;
3677;SDS011;1855;50.934;6.958;2023-08-12T04:21:40;19.65;;;17.85;;
3677;SDS011;1855;50.934;6.958;2023-08-12T04:24:11;19.60;;;17.90;;
3677;SDS011;1855;50.934;6.958;2023-08-12T04:26:37;19.88;;;18.08;;
3677;SDS011;1855;50.934;6.958;2023-08-12T04:29:04;19.02;;;17.23;;
3677;SDS011;1855;50.934;6.958;2023-08-12T04:31:32;20.77;;;18.77;;
3677;SDS011;1855;50.934;6.958;2023-08-12T04:33:59;21.02;;;19.02;;
3677;SDS011;1855;50.934;6.958;2023-08-12T04:36:26;20.90;;;19.00;;
3677;SDS011;1855;50.934;6.958;2023-08-12T04:38:53;21.50;;;19.50;;
3677;SDS011;1855;50.934;6.958;2023-08-12T04:41:20;21.15;;;19.23;;
3677;SDS011;1855;50.934;6.958;2023-08-12T04:43:49;20.30;;;18.50;;
3677;SDS011;1855;50.934;6.958;2023-08-12T04:46:15;20.05;;;18.08;;
3677;SDS011;1855;50.934;6.958;2023-08-12T04:48:44;18.17;;;16.58;;
3677;SDS011;1855;50.934;6.958;2023-08-12T04:51:11;18.05;;;16.55;;
3677;SDS011;1855;50.934;6.958;2023-08-12T04:53:39;17.33;;;15.82;;
3677;SDS011;1855;50.934;6.958;2023-08-12T04:56:06;17.98;;;16.27;;
3677;SDS011;1855;50.934;6.958;2023-08-12T04:58:33;17.80;;;16.10;;
3677;SDS011;1855;50.934;6.958;2023-08-12T05:01:00;18.42;;;16.73;;
3677;SDS011;1855;50.934;6.958;2023-08-12T05:03:27;16.25;;;14.82;;
3677;SDS011;1855;50.934;6.958;2023-08-12T05:05:56;17.05;;;15.48;;
3677;SDS011;1855;50.934;6.958;2023-08-12T05:08:23;17.40;;;15.80;;
3677;SDS011;1855;50.934;6.958;2023-08-12T05:10:49;15.52;;;14.13;;
3677;SDS011;1855;50.934;6.958;2023-08-12T05:13:16;16.35;;;14.85;;
3677;SDS011;1855;50.934;6.958;2023-08-12T05:15:44;15.37;;;13.97;;
3677;SDS011;1855;50.934;6.958;2023-08-12T05:18:12;13.05;;;11.85;;
3677;SDS011;1855;50.934;6.958;2023-08-12T05:20:39;12.95;;;11.85;;
3677;SDS011;1855;50.934;6.958;2023-08-12T05:23:07;13.20;;;12.00;;
3677;SDS011;1855;50.934;6.958;2023-08-12T05:25:35;12.57;;;11.38;;
3677;SDS011;1855;50.934;6.958;2023-08-12T05:28:02;10.90;;;10.00;;
3677;SDS011;1855;50.934;6.958;2023-08-12T05:30:28;11.25;;;10.15;;
3677;SDS011;1855;50.934;6.958;2023-08-12T05:32:55;10.75;;;9.85;;
3677;SDS011;1855;50.934;6.958;2023-08-12T05:35:22;11.02;;;10.10;;
3677;SDS011;1855;50.934;6.958;2023-08-12T05:37:49;10.20;;;9.30;;
3677;SDS011;1855;50.934;6.958;2023-08-12T05:40:17;10.80;;;9.80;;
3677;SDS011;1855;50.934;6.958;2023-08-12T05:42:44;10.93;;;9.93;;
3677;SDS011;1855;50.934;6.958;2023-08-12T05:45:10;11.43;;;10.43;;
3677;SDS011;1855;50.934;6.958;2023-08-12T05:47:37;11.27;;;10.48;;
3677;SDS011;1855;50.934;6.958;2023-08-12T05:50:04;11.50;;;10.60;;
3677;SDS011;1855;50.934;6.958;2023-08-12T05:52:32;12.38;;;11.32;;
3677;SDS011;1855;50.934;6.958;2023-08-12T05:54:59;13.75;;;12.55;;
3677;SDS011;1855;50.934;6.958;2023-08-12T05:57:27;13.67;;;12.47;;
3677;SDS011;1855;50.934;6.958;2023-08-12T05:59:54;14.75;;;13.45;;
3677;SDS011;1855;50.934;6.958;2023-08-12T06:02:21;15.35;;;13.85;;
3677;SDS011;1855;50.934;6.958;2023-08-12T06:04:48;14.90;;;13.70;;
3677;SDS011;1855;50.934;6.958;2023-08-12T06:07:14;16.55;;;15.07;;
3677;SDS011;1855;50.934;6.958;2023-08-12T06:09:41;17.08;;;15.68;;
3677;SDS011;1855;50.934;6.958;2023-08-12T06:12:08;17.98;;;16.40;;
3677;SDS011;1855;50.934;6.958;2023-08-12T06:14:36;19.85;;;17.77;;
3677;SDS011;1855;50.934;6.958;2023-08-12T06:17:04;18.98;;;17.17;;
3677;SDS011;1855;50.934;6.958;2023-08-12T06:19:30;19.40;;;17.60;;
3677;SDS011;1855;50.934;6.958;2023-08-12T06:21:58;19.92;;;18.10;;
3677;SDS011;1855;50.934;6.958;2023-08-12T06:24:24;19.27;;;17.55;;
3677;SDS011;1855;50.934;6.958;2023-08-12T06:26:51;18.30;;;16.70;;
3677;SDS011;1855;50.934;6.958;2023-08-12T06:29:18;16.70;;;15.10;;
3677;SDS011;1855;50.934;6.958;2023-08-12T06:31:46;16.88;;;15.27;;
3677;SDS011;1855;50.934;6.958;2023-08-12T06:34:13;14.60;;;13.20;;
3677;SDS011;1855;50.934;6.958;2023-08-12T06:36:39;14.55;;;13.35;;
3677;SDS011;1855;50.934;6.958;2023-08-12T06:39:06;14.80;;;13.50;;
3677;SDS011;1855;50.934;6.958;2023-08-12T06:41:33;12.18;;;10.98;;
3677;SDS011;1855;50.934;6.958;2023-08-12T06:44:00;10.77;;;9.73;;
3677;SDS011;1855;50.934;6.958;2023-08-12T06:46:28;10.90;;;10.00;;
3677;SDS011;1855;50.934;6.958;2023-08-12T06:48:58;8.48;;;7.78;;
3677;SDS011;1855;50.934;6.958;2023-08-12T06:51:25;8.73;;;7.93;;
3677;SDS011;1855;50.934;6.958;2023-08-12T06:53:51;8.60;;;7.70;;
3677;SDS011;1855;50.934;6.958;2023-08-12T06:56:18;8.65;;;7.85;;
3677;SDS011;1855;50.934;6.958;2023-08-12T06:58:45;8.40;;;7.60;;
3677;SDS011;1855;50.934;6.958;2023-08-12T07:01:12;8.90;;;8.10;;
3677;SDS011;1855;50.934;6.958;2023-08-12T07:03:38;9.60;;;8.70;;
3677;SDS011;1855;50.934;6.958;2023-08-12T07:06:06;9.50;;;8.50;;
3677;SDS011;1855;50.934;6.958;2023-08-12T07:08:33;8.50;;;7.80;;
3677;SDS011;1855;50.934;6.958;2023-08-12T07:11:00;9.70;;;8.90;;
3677;SDS011;1855;50.934;6.958;2023-08-12T07:13:26;9.30;;;8.60;;
3677;SDS011;1855;50.934;6.958;2023-08-12T07:15:53;7.88;;;7.18;;
3677;SDS011;1855;50.934;6.958;2023-08-12T07:18:20;6.65;;;6.15;;
3677;SDS011;1855;50.934;6.958;2023-08-12T07:20:48;8.10;;;7.40;;
3677;SDS011;1855;50.934;6.958;2023-08-12T07:23:16;7.80;;;7.10;;
3677;SDS011;1855;50.934;6.958;2023-08-12T07:25:42;7.80;;;7.20;;
3677;SDS011;1855;50.934;6.958;2023-08-12T07:28:11;7.72;;;7.03;;
3677;SDS011;1855;50.934;6.958;2023-08-12T07:30:38;7.88;;;7.28;;
3677;SDS011;1855;50.934;6.958;2023-08-12T07:33:05;8.30;;;7.60;;
3677;SDS011;1855;50.934;6.958;2023-08-12T07:35:31;7.95;;;7.35;;
3677;SDS011;1855;50.934;6.958;2023-08-12T07:37:58;7.10;;;6.50;;
3677;SDS011;1855;50.934;6.958;2023-08-12T07:40:26;6.85;;;6.15;;
3677;SDS011;1855;50.934;6.958;2023-08-12T07:42:53;5.70;;;5.20;;
3677;SDS011;1855;50.934;6.958;2023-08-12T07:45:21;5.25;;;4.80;;
3677;SDS011;1855;50.934;6.958;2023-08-12T07:47:48;6.25;;;5.68;;
3677;SDS011;1855;50.934;6.958;2023-08-12T07:50:15;5.35;;;4.85;;
3677;SDS011;1855;50.934;6.958;2023-08-12T07:52:42;4.20;;;3.80;;
3677;SDS011;1855;50.934;6.958;2023-08-12T07:55:09;5.50;;;4.20;;
3677;SDS011;1855;50.934;6.958;2023-08-12T07:57:38;4.40;;;4.00;;
3677;SDS011;1855;50.934;6.958;2023-08-12T08:00:05;4.20;;;3.90;;
3677;SDS011;1855;50.934;6.958;2023-08-12T08:02:34;4.47;;;4.07;;
3677;SDS011;1855;50.934;6.958;2023-08-12T08:05:01;3.40;;;2.90;;
3677;SDS011;1855;50.934;6.958;2023-08-12T08:07:28;3.50;;;3.20;;
3677;SDS011;1855;50.934;6.958;2023-08-12T08:09:55;5.00;;;3.10;;
3677;SDS011;1855;50.934;6.958;2023-08-12T08:12:22;3.50;;;3.20;;
3677;SDS011;1855;50.934;6.958;2023-08-12T08:14:50;2.80;;;2.50;;
3677;SDS011;1855;50.934;6.958;2023-08-12T08:17:17;3.20;;;2.90;;
3677;SDS011;1855;50.934;6.958;2023-08-12T08:19:43;3.17;;;2.87;;
3677;SDS011;1855;50.934;6.958;2023-08-12T08:22:10;3.80;;;3.10;;
3677;SDS011;1855;50.934;6.958;2023-08-12T08:24:37;3.50;;;3.20;;
3677;SDS011;1855;50.934;6.958;2023-08-12T08:27:04;3.58;;;2.90;;
3677;SDS011;1855;50.934;6.958;2023-08-12T08:29:31;3.30;;;3.00;;
3677;SDS011;1855;50.934;6.958;2023-08-12T08:31:59;3.45;;;3.15;;
3677;SDS011;1855;50.934;6.958;2023-08-12T08:34:25;3.70;;;2.70;;
3677;SDS011;1855;50.934;6.958;2023-08-12T08:36:52;3.10;;;2.80;;
3677;SDS011;1855;50.934;6.958;2023-08-12T08:39:19;4.05;;;3.10;;
3677;SDS011;1855;50.934;6.958;2023-08-12T08:41:46;3.50;;;2.90;;
3677;SDS011;1855;50.934;6.958;2023-08-12T08:44:14;3.73;;;3.30;;
3677;SDS011;1855;50.934;6.958;2023-08-12T08:46:41;4.70;;;3.47;;
3677;SDS011;1855;50.934;6.958;2023-08-12T08:49:10;4.20;;;3.10;;
3677;SDS011;1855;50.934;6.958;2023-08-12T08:51:41;4.25;;;3.28;;
3677;SDS011;1855;50.934;6.958;2023-08-12T08:54:09;3.42;;;3.00;;
3677;SDS011;1855;50.934;6.958;2023-08-12T08:56:37;4.03;;;3.30;;
3677;SDS011;1855;50.934;6.958;2023-08-12T08:59:04;3.30;;;3.00;;
3677;SDS011;1855;50.934;6.958;2023-08-12T09:01:31;3.00;;;2.67;;
3677;SDS011;1855;50.934;6.958;2023-08-12T09:03:58;4.28;;;3.22;;
3677;SDS011;1855;50.934;6.958;2023-08-12T09:06:27;4.40;;;2.70;;
3677;SDS011;1855;50.934;6.958;2023-08-12T09:08:55;4.32;;;2.95;;
3677;SDS011;1855;50.934;6.958;2023-08-12T09:11:22;2.80;;;2.50;;
3677;SDS011;1855;50.934;6.958;2023-08-12T09:13:50;3.22;;;2.75;;
3677;SDS011;1855;50.934;6.958;2023-08-12T09:16:16;3.88;;;2.60;;
3677;SDS011;1855;50.934;6.958;2023-08-12T09:18:43;3.35;;;2.20;;
3677;SDS011;1855;50.934;6.958;2023-08-12T09:21:10;3.28;;;2.50;;
3677;SDS011;1855;50.934;6.958;2023-08-12T09:23:38;2.22;;;2.03;;
3677;SDS011;1855;50.934;6.958;2023-08-12T09:26:13;2.78;;;2.22;;
3677;SDS011;1855;50.934;6.958;2023-08-12T09:28:41;2.95;;;2.30;;
3677;SDS011;1855;50.934;6.958;2023-08-12T09:31:08;2.63;;;2.20;;
3677;SDS011;1855;50.934;6.958;2023-08-12T09:33:48;4.05;;;2.80;;
3677;SDS011;1855;50.934;6.958;2023-08-12T09:36:15;2.70;;;2.10;;
3677;SDS011;1855;50.934;6.958;2023-08-12T09:38:43;3.38;;;3.03;;
3677;SDS011;1855;50.934;6.958;2023-08-12T09:41:10;9.83;;;8.90;;
3677;SDS011;1855;50.934;6.958;2023-08-12T09:43:39;6.73;;;6.20;;
3677;SDS011;1855;50.934;6.958;2023-08-12T09:46:10;5.83;;;5.23;;
3677;SDS011;1855;50.934;6.958;2023-08-12T09:48:37;2.50;;;2.30;;
3677;SDS011;1855;50.934;6.958;2023-08-12T09:51:04;2.55;;;1.80;;
3677;SDS011;1855;50.934;6.958;2023-08-12T09:53:32;2.00;;;1.50;;
3677;SDS011;1855;50.934;6.958;2023-08-12T09:56:01;2.83;;;1.70;;
3677;SDS011;1855;50.934;6.958;2023-08-12T09:58:31;2.40;;;1.70;;
3677;SDS011;1855;50.934;6.958;2023-08-12T10:01:00;2.35;;;1.90;;
3677;SDS011;1855;50.934;6.958;2023-08-12T10:03:28;2.22;;;2.00;;
3677;SDS011;1855;50.934;6.958;2023-08-12T10:05:55;2.13;;;1.92;;
3677;SDS011;1855;50.934;6.958;2023-08-12T10:08:23;2.50;;;1.80;;
3677;SDS011;1855;50.934;6.958;2023-08-12T10:10:50;2.97;;;1.92;;
3677;SDS011;1855;50.934;6.958;2023-08-12T10:13:18;2.70;;;1.60;;
3677;SDS011;1855;50.934;6.958;2023-08-12T10:15:46;2.83;;;2.30;;
3677;SDS011;1855;50.934;6.958;2023-08-12T10:18:14;3.50;;;2.20;;
3677;SDS011;1855;50.934;6.958;2023-08-12T10:20:42;3.00;;;2.30;;
3677;SDS011;1855;50.934;6.958;2023-08-12T10:23:16;2.45;;;2.00;;
3677;SDS011;1855;50.934;6.958;2023-08-12T10:25:44;2.80;;;1.70;;
3677;SDS011;1855;50.934;6.958;2023-08-12T10:28:11;2.70;;;1.55;;
3677;SDS011;1855;50.934;6.958;2023-08-12T10:30:40;2.45;;;1.85;;
3677;SDS011;1855;50.934;6.958;2023-08-12T10:33:08;2.00;;;1.70;;
3677;SDS011;1855;50.934;6.958;2023-08-12T10:35:41;3.20;;;2.20;;
3677;SDS011;1855;50.934;6.958;2023-08-12T10:38:10;2.63;;;1.50;;
3677;SDS011;1855;50.934;6.958;2023-08-12T10:40:37;2.20;;;1.70;;
3677;SDS011;1855;50.934;6.958;2023-08-12T10:43:04;1.80;;;1.70;;
3677;SDS011;1855;50.934;6.958;2023-08-12T10:45:42;2.03;;;1.70;;
3677;SDS011;1855;50.934;6.958;2023-08-12T10:48:16;2.88;;;1.88;;
3677;SDS011;1855;50.934;6.958;2023-08-12T10:50:45;2.47;;;1.70;;
3677;SDS011;1855;50.934;6.958;2023-08-12T10:53:20;2.50;;;1.60;;
3677;SDS011;1855;50.934;6.958;2023-08-12T10:55:49;2.00;;;1.50;;
3677;SDS011;1855;50.934;6.958;2023-08-12T10:58:24;1.70;;;1.57;;
3677;SDS011;1855;50.934;6.958;2023-08-12T11:00:54;2.05;;;1.42;;
3677;SDS011;1855;50.934;6.958;2023-08-12T11:03:21;1.60;;;1.40;;
3677;SDS011;1855;50.934;6.958;2023-08-12T11:05:48;2.13;;;1.45;;
3677;SDS011;1855;50.934;6.958;2023-08-12T11:08:15;2.15;;;1.42;;
3677;SDS011;1855;50.934;6.958;2023-08-12T11:10:42;1.70;;;1.30;;
3677;SDS011;1855;50.934;6.958;2023-08-12T11:13:09;1.50;;;1.30;;
3677;SDS011;1855;50.934;6.958;2023-08-12T11:15:37;1.80;;;1.30;;
3677;SDS011;1855;50.934;6.958;2023-08-12T11:18:08;2.00;;;1.40;;
3677;SDS011;1855;50.934;6.958;2023-08-12T11:20:36;1.80;;;1.30;;
3677;SDS011;1855;50.934;6.958;2023-08-12T11:23:04;1.45;;;1.33;;
3677;SDS011;1855;50.934;6.958;2023-08-12T11:25:32;1.63;;;1.20;;
3677;SDS011;1855;50.934;6.958;2023-08-12T11:28:00;1.40;;;1.20;;
3677;SDS011;1855;50.934;6.958;2023-08-12T11:30:27;2.25;;;1.20;;
3677;SDS011;1855;50.934;6.958;2023-08-12T11:32:54;1.50;;;1.00;;
3677;SDS011;1855;50.934;6.958;2023-08-12T11:35:23;2.42;;;1.30;;
3677;SDS011;1855;50.934;6.958;2023-08-12T11:37:50;1.40;;;1.13;;
3677;SDS011;1855;50.934;6.958;2023-08-12T11:40:20;1.90;;;1.20;;
3677;SDS011;1855;50.934;6.958;2023-08-12T11:42:48;2.10;;;1.20;;
3677;SDS011;1855;50.934;6.958;2023-08-12T11:45:16;1.80;;;1.10;;
3677;SDS011;1855;50.934;6.958;2023-08-12T11:47:44;1.70;;;1.23;;
3677;SDS011;1855;50.934;6.958;2023-08-12T11:50:17;1.70;;;1.25;;
3677;SDS011;1855;50.934;6.958;2023-08-12T11:52:45;1.50;;;1.30;;
3677;SDS011;1855;50.934;6.958;2023-08-12T11:55:13;1.40;;;1.23;;
3677;SDS011;1855;50.934;6.958;2023-08-12T11:57:40;2.28;;;1.50;;
3677;SDS011;1855;50.934;6.958;2023-08-12T12:00:08;1.40;;;1.20;;
3677;SDS011;1855;50.934;6.958;2023-08-12T12:02:40;1.60;;;1.23;;
3677;SDS011;1855;50.934;6.958;2023-08-12T12:05:08;2.00;;;1.10;;
3677;SDS011;1855;50.934;6.958;2023-08-12T12:07:37;1.40;;;1.20;;
3677;SDS011;1855;50.934;6.958;2023-08-12T12:10:06;1.35;;;1.20;;
3677;SDS011;1855;50.934;6.958;2023-08-12T12:12:33;1.48;;;1.17;;
3677;SDS011;1855;50.934;6.958;2023-08-12T12:15:00;1.88;;;1.30;;
3677;SDS011;1855;50.934;6.958;2023-08-12T12:17:28;1.75;;;1.27;;
3677;SDS011;1855;50.934;6.958;2023-08-12T12:19:55;1.77;;;1.33;;
3677;SDS011;1855;50.934;6.958;2023-08-12T12:22:25;1.80;;;1.40;;
3677;SDS011;1855;50.934;6.958;2023-08-12T12:24:54;1.35;;;1.10;;
3677;SDS011;1855;50.934;6.958;2023-08-12T12:27:24;1.90;;;1.10;;
3677;SDS011;1855;50.934;6.958;2023-08-12T12:29:51;1.70;;;0.80;;
3677;SDS011;1855;50.934;6.958;2023-08-12T12:32:18;1.40;;;1.20;;
3677;SDS011;1855;50.934;6.958;2023-08-12T12:34:45;1.40;;;1.08;;
3677;SDS011;1855;50.934;6.958;2023-08-12T12:37:12;2.70;;;1.23;;
3677;SDS011;1855;50.934;6.958;2023-08-12T12:39:39;2.20;;;1.60;;
3677;SDS011;1855;50.934;6.958;2023-08-12T12:42:07;2.22;;;1.70;;
3677;SDS011;1855;50.934;6.958;2023-08-12T12:44:35;1.70;;;1.30;;
3677;SDS011;1855;50.934;6.958;2023-08-12T12:47:02;2.03;;;1.30;;
3677;SDS011;1855;50.934;6.958;2023-08-12T12:49:28;1.50;;;1.20;;
3677;SDS011;1855;50.934;6.958;2023-08-12T12:51:55;1.40;;;1.10;;
3677;SDS011;1855;50.934;6.958;2023-08-12T12:54:22;1.05;;;0.80;;
3677;SDS011;1855;50.934;6.958;2023-08-12T12:56:49;1.30;;;1.10;;
3677;SDS011;1855;50.934;6.958;2023-08-12T12:59:16;1.73;;;1.10;;
3677;SDS011;1855;50.934;6.958;2023-08-12T13:01:44;1.50;;;1.00;;
3677;SDS011;1855;50.934;6.958;2023-08-12T13:04:11;1.60;;;1.10;;
3677;SDS011;1855;50.934;6.958;2023-08-12T13:06:37;1.20;;;0.93;;
3677;SDS011;1855;50.934;6.958;2023-08-12T13:09:04;1.63;;;0.90;;
3677;SDS011;1855;50.934;6.958;2023-08-12T13:11:32;1.20;;;1.00;;
3677;SDS011;1855;50.934;6.958;2023-08-12T13:14:00;0.90;;;0.70;;
3677;SDS011;1855;50.934;6.958;2023-08-12T13:16:27;1.08;;;0.80;;
3677;SDS011;1855;50.934;6.958;2023-08-12T13:18:55;1.13;;;1.00;;
3677;SDS011;1855;50.934;6.958;2023-08-12T13:21:23;1.00;;;0.70;;
3677;SDS011;1855;50.934;6.958;2023-08-12T13:23:50;1.10;;;0.60;;
3677;SDS011;1855;50.934;6.958;2023-08-12T13:26:16;0.90;;;0.60;;
3677;SDS011;1855;50.934;6.958;2023-08-12T13:28:45;1.83;;;0.50;;
3677;SDS011;1855;50.934;6.958;2023-08-12T13:31:13;1.40;;;0.50;;
3677;SDS011;1855;50.934;6.958;2023-08-12T13:33:39;2.10;;;0.60;;
3677;SDS011;1855;50.934;6.958;2023-08-12T13:36:07;0.80;;;0.40;;
3677;SDS011;1855;50.934;6.958;2023-08-12T13:38:34;1.08;;;0.60;;
3677;SDS011;1855;50.934;6.958;2023-08-12T13:41:01;1.20;;;0.50;;
3677;SDS011;1855;50.934;6.958;2023-08-12T13:43:28;0.93;;;0.50;;
3677;SDS011;1855;50.934;6.958;2023-08-12T13:45:55;0.73;;;0.50;;
3677;SDS011;1855;50.934;6.958;2023-08-12T13:48:22;0.80;;;0.50;;
3677;SDS011;1855;50.934;6.958;2023-08-12T13:50:48;0.98;;;0.40;;
3677;SDS011;1855;50.934;6.958;2023-08-12T13:53:18;0.70;;;0.40;;
3677;SDS011;1855;50.934;6.958;2023-08-12T13:55:45;1.10;;;0.40;;
3677;SDS011;1855;50.934;6.958;2023-08-12T13:58:12;0.70;;;0.40;;
3677;SDS011;1855;50.934;6.958;2023-08-12T14:00:39;0.60;;;0.40;;
3677;SDS011;1855;50.934;6.958;2023-08-12T14:03:06;0.90;;;0.40;;
3677;SDS011;1855;50.934;6.958;2023-08-12T14:05:33;0.60;;;0.35;;
3677;SDS011;1855;50.934;6.958;2023-08-12T14:08:00;0.60;;;0.40;;
3677;SDS011;1855;50.934;6.958;2023-08-12T14:10:28;1.00;;;0.40;;
3677;SDS011;1855;50.934;6.958;2023-08-12T14:12:54;0.70;;;0.40;;
3677;SDS011;1855;50.934;6.958;2023-08-12T14:15:21;0.65;;;0.40;;
3677;SDS011;1855;50.934;6.958;2023-08-12T14:17:48;0.80;;;0.40;;
3677;SDS011;1855;50.934;6.958;2023-08-12T14:20:15;0.70;;;0.40;;
3677;SDS011;1855;50.934;6.958;2023-08-12T14:22:41;0.60;;;0.30;;
3677;SDS011;1855;50.934;6.958;2023-08-12T14:25:09;0.63;;;0.30;;
3677;SDS011;1855;50.934;6.958;2023-08-12T14:27:38;0.60;;;0.30;;
3677;SDS011;1855;50.934;6.958;2023-08-12T14:30:05;0.70;;;0.40;;
3677;SDS011;1855;50.934;6.958;2023-08-12T14:32:33;1.40;;;0.40;;
3677;SDS011;1855;50.934;6.958;2023-08-12T14:35:00;1.00;;;0.30;;
3677;SDS011;1855;50.934;6.958;2023-08-12T14:37:27;0.90;;;0.38;;
3677;SDS011;1855;50.934;6.958;2023-08-12T14:39:54;0.60;;;0.30;;
3677;SDS011;1855;50.934;6.958;2023-08-12T14:42:20;0.80;;;0.40;;
3677;SDS011;1855;50.934;6.958;2023-08-12T14:44:48;0.70;;;0.30;;
3677;SDS011;1855;50.934;6.958;2023-08-12T14:47:15;0.60;;;0.30;;
3677;SDS011;1855;50.934;6.958;2023-08-12T14:49:42;0.70;;;0.40;;
3677;SDS011;1855;50.934;6.958;2023-08-12T14:52:14;0.98;;;0.40;;
3677;SDS011;1855;50.934;6.958;2023-08-12T14:54:42;1.10;;;0.30;;
3677;SDS011;1855;50.934;6.958;2023-08-12T14:57:09;1.10;;;0.50;;
3677;SDS011;1855;50.934;6.958;2023-08-12T14:59:35;0.77;;;0.30;;
3677;SDS011;1855;50.934;6.958;2023-08-12T15:02:04;0.90;;;0.50;;
3677;SDS011;1855;50.934;6.958;2023-08-12T15:04:31;0.90;;;0.40;;